sensor_id;sensor_type;location;lat;lon;timestamp;temperature;humidity
16267;DHT22;8241;48.786;9.250;2022-10-16T00:00:09;16.20;99.90
16267;DHT22;8241;48.786;9.250;2022-10-16T00:02:41;16.20;99.90
16267;DHT22;8241;48.786;9.250;2022-10-16T00:05:13;16.20;99.90
16267;DHT22;8241;48.786;9.250;2022-10-16T00:10:29;16.20;99.90
16267;DHT22;8241;48.786;9.250;2022-10-16T00:13:05;16.20;99.90
16267;DHT22;8241;48.786;9.250;2022-10-16T00:15:34;16.20;99.90
16267;DHT22;8241;48.786;9.250;2022-10-16T00:18:18;16.20;99.90
16267;DHT22;8241;48.786;9.250;2022-10-16T00:21:01;16.20;99.90
16267;DHT22;8241;48.786;9.250;2022-10-16T00:26:21;16.10;99.90
16267;DHT22;8241;48.786;9.250;2022-10-16T00:28:55;16.00;99.90
16267;DHT22;8241;48.786;9.250;2022-10-16T00:31:24;16.00;99.90
16267;DHT22;8241;48.786;9.250;2022-10-16T00:37:03;16.00;99.90
16267;DHT22;8241;48.786;9.250;2022-10-16T00:42:20;16.00;99.90
16267;DHT22;8241;48.786;9.250;2022-10-16T00:44:59;15.90;99.90
16267;DHT22;8241;48.786;9.250;2022-10-16T00:47:26;15.90;99.90
16267;DHT22;8241;48.786;9.250;2022-10-16T00:49:56;15.90;99.90
16267;DHT22;8241;48.786;9.250;2022-10-16T00:55:11;15.80;99.90
16267;DHT22;8241;48.786;9.250;2022-10-16T00:57:40;15.80;99.90
16267;DHT22;8241;48.786;9.250;2022-10-16T01:02:38;15.80;99.90
16267;DHT22;8241;48.786;9.250;2022-10-16T01:05:04;15.80;99.90
16267;DHT22;8241;48.786;9.250;2022-10-16T01:07:34;15.70;99.90
16267;DHT22;8241;48.786;9.250;2022-10-16T01:10:07;15.70;99.90
16267;DHT22;8241;48.786;9.250;2022-10-16T01:12:38;15.70;99.90
16267;DHT22;8241;48.786;9.250;2022-10-16T01:15:10;15.70;99.90
16267;DHT22;8241;48.786;9.250;2022-10-16T01:17:39;15.70;99.90
16267;DHT22;8241;48.786;9.250;2022-10-16T01:20:25;15.70;99.90
16267;DHT22;8241;48.786;9.250;2022-10-16T01:23:04;15.70;99.90
16267;DHT22;8241;48.786;9.250;2022-10-16T01:25:39;15.70;99.90
16267;DHT22;8241;48.786;9.250;2022-10-16T01:28:27;15.70;99.90
16267;DHT22;8241;48.786;9.250;2022-10-16T01:30:56;15.70;99.90
16267;DHT22;8241;48.786;9.250;2022-10-16T01:33:24;15.70;99.90
16267;DHT22;8241;48.786;9.250;2022-10-16T01:35:53;15.70;99.90
16267;DHT22;8241;48.786;9.250;2022-10-16T01:38:22;15.70;99.90
16267;DHT22;8241;48.786;9.250;2022-10-16T01:40:50;15.70;99.90
16267;DHT22;8241;48.786;9.250;2022-10-16T01:43:33;15.70;99.90
16267;DHT22;8241;48.786;9.250;2022-10-16T01:46:01;15.60;99.90
16267;DHT22;8241;48.786;9.250;2022-10-16T01:48:34;15.60;99.90
16267;DHT22;8241;48.786;9.250;2022-10-16T01:51:03;15.70;99.90
16267;DHT22;8241;48.786;9.250;2022-10-16T01:53:30;15.70;99.90
16267;DHT22;8241;48.786;9.250;2022-10-16T01:55:58;15.60;99.90
16267;DHT22;8241;48.786;9.250;2022-10-16T01:58:25;15.60;99.90
16267;DHT22;8241;48.786;9.250;2022-10-16T02:01:03;15.60;99.90
16267;DHT22;8241;48.786;9.250;2022-10-16T02:03:31;15.60;99.90
16267;DHT22;8241;48.786;9.250;2022-10-16T02:05:58;15.60;99.90
16267;DHT22;8241;48.786;9.250;2022-10-16T02:08:26;15.60;99.90
16267;DHT22;8241;48.786;9.250;2022-10-16T02:13:27;15.60;99.90
16267;DHT22;8241;48.786;9.250;2022-10-16T02:15:54;15.60;99.90
16267;DHT22;8241;48.786;9.250;2022-10-16T02:18:24;15.70;99.90
16267;DHT22;8241;48.786;9.250;2022-10-16T02:20:55;15.70;99.90
16267;DHT22;8241;48.786;9.250;2022-10-16T02:23:24;15.60;99.90
16267;DHT22;8241;48.786;9.250;2022-10-16T02:25:53;15.70;99.90
16267;DHT22;8241;48.786;9.250;2022-10-16T02:28:22;15.70;99.90
16267;DHT22;8241;48.786;9.250;2022-10-16T02:30:51;15.70;99.90
16267;DHT22;8241;48.786;9.250;2022-10-16T02:33:21;15.70;99.90
16267;DHT22;8241;48.786;9.250;2022-10-16T02:35:50;15.70;99.90
16267;DHT22;8241;48.786;9.250;2022-10-16T02:38:17;15.70;99.90
16267;DHT22;8241;48.786;9.250;2022-10-16T02:40:45;15.70;99.90
16267;DHT22;8241;48.786;9.250;2022-10-16T02:43:12;15.80;99.90
16267;DHT22;8241;48.786;9.250;2022-10-16T02:45:40;15.80;99.90
16267;DHT22;8241;48.786;9.250;2022-10-16T02:48:07;15.70;99.90
16267;DHT22;8241;48.786;9.250;2022-10-16T02:50:34;15.70;99.90
16267;DHT22;8241;48.786;9.250;2022-10-16T02:53:03;15.70;99.90
16267;DHT22;8241;48.786;9.250;2022-10-16T02:55:29;15.70;99.90
16267;DHT22;8241;48.786;9.250;2022-10-16T02:57:56;15.70;99.90
16267;DHT22;8241;48.786;9.250;2022-10-16T03:00:23;15.70;99.90
16267;DHT22;8241;48.786;9.250;2022-10-16T03:02:50;15.70;99.90
16267;DHT22;8241;48.786;9.250;2022-10-16T03:05:17;15.70;99.90
16267;DHT22;8241;48.786;9.250;2022-10-16T03:07:44;15.70;99.90
16267;DHT22;8241;48.786;9.250;2022-10-16T03:10:13;15.70;99.90
16267;DHT22;8241;48.786;9.250;2022-10-16T03:12:39;15.70;99.90
16267;DHT22;8241;48.786;9.250;2022-10-16T03:15:07;15.70;99.90
16267;DHT22;8241;48.786;9.250;2022-10-16T03:17:33;15.60;99.90
16267;DHT22;8241;48.786;9.250;2022-10-16T03:20:00;15.60;99.90
16267;DHT22;8241;48.786;9.250;2022-10-16T03:25:20;15.60;99.90
16267;DHT22;8241;48.786;9.250;2022-10-16T03:27:47;15.60;99.90
16267;DHT22;8241;48.786;9.250;2022-10-16T03:30:14;15.60;99.90
16267;DHT22;8241;48.786;9.250;2022-10-16T03:32:40;15.60;99.90
16267;DHT22;8241;48.786;9.250;2022-10-16T03:35:07;15.50;99.90
16267;DHT22;8241;48.786;9.250;2022-10-16T03:37:34;15.50;99.90
16267;DHT22;8241;48.786;9.250;2022-10-16T03:40:01;15.50;99.90
16267;DHT22;8241;48.786;9.250;2022-10-16T03:42:30;15.50;99.90
16267;DHT22;8241;48.786;9.250;2022-10-16T03:44:57;15.50;99.90
16267;DHT22;8241;48.786;9.250;2022-10-16T03:47:23;15.50;99.90
16267;DHT22;8241;48.786;9.250;2022-10-16T03:49:50;15.50;99.90
16267;DHT22;8241;48.786;9.250;2022-10-16T03:52:17;15.50;99.90
16267;DHT22;8241;48.786;9.250;2022-10-16T03:57:37;15.40;99.90
16267;DHT22;8241;48.786;9.250;2022-10-16T04:00:05;15.40;99.90
16267;DHT22;8241;48.786;9.250;2022-10-16T04:05:24;15.40;99.90
16267;DHT22;8241;48.786;9.250;2022-10-16T04:07:51;15.40;99.90
16267;DHT22;8241;48.786;9.250;2022-10-16T04:10:22;15.40;99.90
16267;DHT22;8241;48.786;9.250;2022-10-16T04:12:52;15.40;99.90
16267;DHT22;8241;48.786;9.250;2022-10-16T04:15:21;15.40;99.90
16267;DHT22;8241;48.786;9.250;2022-10-16T04:18:00;15.50;99.90
16267;DHT22;8241;48.786;9.250;2022-10-16T04:20:28;15.50;99.90
16267;DHT22;8241;48.786;9.250;2022-10-16T04:22:55;15.40;99.90
16267;DHT22;8241;48.786;9.250;2022-10-16T04:25:22;15.40;99.90
16267;DHT22;8241;48.786;9.250;2022-10-16T04:27:52;15.40;99.90
16267;DHT22;8241;48.786;9.250;2022-10-16T04:30:37;15.40;99.90
16267;DHT22;8241;48.786;9.250;2022-10-16T04:33:05;15.40;99.90
16267;DHT22;8241;48.786;9.250;2022-10-16T04:35:36;15.40;99.90
16267;DHT22;8241;48.786;9.250;2022-10-16T04:38:03;15.40;99.90
16267;DHT22;8241;48.786;9.250;2022-10-16T04:40:41;15.40;99.90
16267;DHT22;8241;48.786;9.250;2022-10-16T04:43:09;15.40;99.90
16267;DHT22;8241;48.786;9.250;2022-10-16T04:45:37;15.40;99.90
16267;DHT22;8241;48.786;9.250;2022-10-16T04:48:04;15.40;99.90
16267;DHT22;8241;48.786;9.250;2022-10-16T04:53:18;15.40;99.90
16267;DHT22;8241;48.786;9.250;2022-10-16T04:55:45;15.40;99.90
16267;DHT22;8241;48.786;9.250;2022-10-16T05:01:21;15.40;99.90
16267;DHT22;8241;48.786;9.250;2022-10-16T05:03:57;15.40;99.90
16267;DHT22;8241;48.786;9.250;2022-10-16T05:06:26;15.30;99.90
16267;DHT22;8241;48.786;9.250;2022-10-16T05:08:55;15.30;99.90
16267;DHT22;8241;48.786;9.250;2022-10-16T05:11:23;15.30;99.90
16267;DHT22;8241;48.786;9.250;2022-10-16T05:17:26;15.30;99.90
16267;DHT22;8241;48.786;9.250;2022-10-16T05:19:53;15.30;99.90
16267;DHT22;8241;48.786;9.250;2022-10-16T05:22:27;15.20;99.90
16267;DHT22;8241;48.786;9.250;2022-10-16T05:24:57;15.20;99.90
16267;DHT22;8241;48.786;9.250;2022-10-16T05:27:41;15.30;99.90
16267;DHT22;8241;48.786;9.250;2022-10-16T05:30:17;15.20;99.90
16267;DHT22;8241;48.786;9.250;2022-10-16T05:32:59;15.20;99.90
16267;DHT22;8241;48.786;9.250;2022-10-16T05:35:28;15.20;99.90
16267;DHT22;8241;48.786;9.250;2022-10-16T05:38:04;15.20;99.90
16267;DHT22;8241;48.786;9.250;2022-10-16T05:48:28;15.20;99.90
16267;DHT22;8241;48.786;9.250;2022-10-16T05:53:31;15.10;99.90
16267;DHT22;8241;48.786;9.250;2022-10-16T05:56:11;15.10;99.90
16267;DHT22;8241;48.786;9.250;2022-10-16T05:58:54;15.10;99.90
16267;DHT22;8241;48.786;9.250;2022-10-16T06:01:25;15.10;99.90
16267;DHT22;8241;48.786;9.250;2022-10-16T06:04:01;15.20;99.90
16267;DHT22;8241;48.786;9.250;2022-10-16T06:06:37;15.20;99.90
16267;DHT22;8241;48.786;9.250;2022-10-16T06:09:06;15.20;99.90
16267;DHT22;8241;48.786;9.250;2022-10-16T06:11:33;15.20;99.90
16267;DHT22;8241;48.786;9.250;2022-10-16T06:14:01;15.30;99.90
16267;DHT22;8241;48.786;9.250;2022-10-16T06:19:33;15.20;99.90
16267;DHT22;8241;48.786;9.250;2022-10-16T06:22:11;15.20;99.90
16267;DHT22;8241;48.786;9.250;2022-10-16T06:24:38;15.20;99.90
16267;DHT22;8241;48.786;9.250;2022-10-16T06:27:17;15.20;99.90
16267;DHT22;8241;48.786;9.250;2022-10-16T06:29:44;15.20;99.90
16267;DHT22;8241;48.786;9.250;2022-10-16T06:32:17;15.30;99.90
16267;DHT22;8241;48.786;9.250;2022-10-16T06:37:41;15.30;99.90
16267;DHT22;8241;48.786;9.250;2022-10-16T06:43:15;15.40;99.90
16267;DHT22;8241;48.786;9.250;2022-10-16T06:45:49;15.40;99.90
16267;DHT22;8241;48.786;9.250;2022-10-16T06:51:29;15.50;99.90
16267;DHT22;8241;48.786;9.250;2022-10-16T06:54:09;15.50;99.90
16267;DHT22;8241;48.786;9.250;2022-10-16T06:56:37;15.50;99.90
16267;DHT22;8241;48.786;9.250;2022-10-16T06:59:16;15.60;99.90
16267;DHT22;8241;48.786;9.250;2022-10-16T07:04:45;15.60;99.90
16267;DHT22;8241;48.786;9.250;2022-10-16T07:07:15;15.60;99.90
16267;DHT22;8241;48.786;9.250;2022-10-16T07:09:44;15.70;99.90
16267;DHT22;8241;48.786;9.250;2022-10-16T07:12:19;15.70;99.90
16267;DHT22;8241;48.786;9.250;2022-10-16T07:14:48;15.70;99.90
16267;DHT22;8241;48.786;9.250;2022-10-16T07:17:17;15.80;99.90
16267;DHT22;8241;48.786;9.250;2022-10-16T07:23:12;15.90;99.90
16267;DHT22;8241;48.786;9.250;2022-10-16T07:25:40;16.00;99.90
16267;DHT22;8241;48.786;9.250;2022-10-16T07:28:07;16.10;99.90
16267;DHT22;8241;48.786;9.250;2022-10-16T07:30:38;16.20;99.90
16267;DHT22;8241;48.786;9.250;2022-10-16T07:33:15;16.20;99.90
16267;DHT22;8241;48.786;9.250;2022-10-16T07:35:49;16.20;99.90
16267;DHT22;8241;48.786;9.250;2022-10-16T07:41:09;16.10;99.90
16267;DHT22;8241;48.786;9.250;2022-10-16T07:43:37;16.10;99.90
16267;DHT22;8241;48.786;9.250;2022-10-16T07:46:21;16.30;99.90
16267;DHT22;8241;48.786;9.250;2022-10-16T07:48:50;16.30;99.90
16267;DHT22;8241;48.786;9.250;2022-10-16T07:51:17;16.20;99.90
16267;DHT22;8241;48.786;9.250;2022-10-16T07:53:44;16.20;99.90
16267;DHT22;8241;48.786;9.250;2022-10-16T07:56:12;16.20;99.90
16267;DHT22;8241;48.786;9.250;2022-10-16T07:58:39;16.20;99.90
16267;DHT22;8241;48.786;9.250;2022-10-16T08:01:06;16.30;99.90
16267;DHT22;8241;48.786;9.250;2022-10-16T08:06:35;16.30;99.90
16267;DHT22;8241;48.786;9.250;2022-10-16T08:09:14;16.40;99.90
16267;DHT22;8241;48.786;9.250;2022-10-16T08:11:43;16.40;99.90
16267;DHT22;8241;48.786;9.250;2022-10-16T08:14:09;16.50;99.90
16267;DHT22;8241;48.786;9.250;2022-10-16T08:16:36;16.60;99.90
16267;DHT22;8241;48.786;9.250;2022-10-16T08:19:03;16.60;99.90
16267;DHT22;8241;48.786;9.250;2022-10-16T08:21:30;16.70;99.90
16267;DHT22;8241;48.786;9.250;2022-10-16T08:23:56;16.90;99.90
16267;DHT22;8241;48.786;9.250;2022-10-16T08:26:26;17.10;99.90
16267;DHT22;8241;48.786;9.250;2022-10-16T08:28:55;17.40;99.90
16267;DHT22;8241;48.786;9.250;2022-10-16T08:31:22;17.60;99.90
16267;DHT22;8241;48.786;9.250;2022-10-16T08:33:49;17.80;99.90
16267;DHT22;8241;48.786;9.250;2022-10-16T08:36:16;17.90;99.90
16267;DHT22;8241;48.786;9.250;2022-10-16T08:38:49;18.20;99.90
16267;DHT22;8241;48.786;9.250;2022-10-16T08:41:23;18.20;99.90
16267;DHT22;8241;48.786;9.250;2022-10-16T08:46:41;18.40;99.90
16267;DHT22;8241;48.786;9.250;2022-10-16T08:49:19;18.40;99.90
16267;DHT22;8241;48.786;9.250;2022-10-16T08:51:45;18.50;99.90
16267;DHT22;8241;48.786;9.250;2022-10-16T08:57:11;18.30;99.90
16267;DHT22;8241;48.786;9.250;2022-10-16T08:59:39;18.20;99.90
16267;DHT22;8241;48.786;9.250;2022-10-16T09:02:16;18.10;99.90
16267;DHT22;8241;48.786;9.250;2022-10-16T09:04:50;18.10;99.90
16267;DHT22;8241;48.786;9.250;2022-10-16T09:07:27;18.10;99.90
16267;DHT22;8241;48.786;9.250;2022-10-16T09:10:00;18.20;99.90
16267;DHT22;8241;48.786;9.250;2022-10-16T09:12:32;18.30;99.90
16267;DHT22;8241;48.786;9.250;2022-10-16T09:15:18;18.40;99.90
16267;DHT22;8241;48.786;9.250;2022-10-16T09:17:52;18.60;99.90
16267;DHT22;8241;48.786;9.250;2022-10-16T09:20:25;18.80;99.90
16267;DHT22;8241;48.786;9.250;2022-10-16T09:22:54;19.30;99.90
16267;DHT22;8241;48.786;9.250;2022-10-16T09:25:23;19.60;99.90
16267;DHT22;8241;48.786;9.250;2022-10-16T09:27:51;20.00;99.90
16267;DHT22;8241;48.786;9.250;2022-10-16T09:30:19;20.80;99.90
16267;DHT22;8241;48.786;9.250;2022-10-16T09:32:47;21.60;99.90
16267;DHT22;8241;48.786;9.250;2022-10-16T09:35:17;21.60;99.90
16267;DHT22;8241;48.786;9.250;2022-10-16T09:37:46;21.20;99.90
16267;DHT22;8241;48.786;9.250;2022-10-16T09:40:23;21.30;99.90
16267;DHT22;8241;48.786;9.250;2022-10-16T09:45:55;25.20;97.70
16267;DHT22;8241;48.786;9.250;2022-10-16T09:48:22;26.30;94.90
16267;DHT22;8241;48.786;9.250;2022-10-16T09:53:40;24.70;96.40
16267;DHT22;8241;48.786;9.250;2022-10-16T09:56:07;24.10;97.30
16267;DHT22;8241;48.786;9.250;2022-10-16T09:58:34;24.80;96.50
16267;DHT22;8241;48.786;9.250;2022-10-16T10:01:01;25.60;95.80
16267;DHT22;8241;48.786;9.250;2022-10-16T10:03:33;26.50;94.10
16267;DHT22;8241;48.786;9.250;2022-10-16T10:06:03;26.10;94.30
16267;DHT22;8241;48.786;9.250;2022-10-16T10:08:31;25.30;95.20
16267;DHT22;8241;48.786;9.250;2022-10-16T10:11:00;24.30;96.60
16267;DHT22;8241;48.786;9.250;2022-10-16T10:13:26;24.50;96.80
16267;DHT22;8241;48.786;9.250;2022-10-16T10:15:53;24.40;96.80
16267;DHT22;8241;48.786;9.250;2022-10-16T10:18:20;23.80;97.30
16267;DHT22;8241;48.786;9.250;2022-10-16T10:23:44;23.10;98.60
16267;DHT22;8241;48.786;9.250;2022-10-16T10:26:23;22.90;98.70
16267;DHT22;8241;48.786;9.250;2022-10-16T10:28:53;23.30;98.20
16267;DHT22;8241;48.786;9.250;2022-10-16T10:34:25;23.30;98.00
16267;DHT22;8241;48.786;9.250;2022-10-16T10:36:55;23.60;97.60
16267;DHT22;8241;48.786;9.250;2022-10-16T10:39:30;23.60;97.20
16267;DHT22;8241;48.786;9.250;2022-10-16T10:42:12;23.40;97.70
16267;DHT22;8241;48.786;9.250;2022-10-16T10:44:50;23.40;97.60
16267;DHT22;8241;48.786;9.250;2022-10-16T10:47:23;23.40;97.90
16267;DHT22;8241;48.786;9.250;2022-10-16T10:52:29;23.40;97.10
16267;DHT22;8241;48.786;9.250;2022-10-16T10:55:03;23.50;97.70
16267;DHT22;8241;48.786;9.250;2022-10-16T10:57:38;23.60;98.10
16267;DHT22;8241;48.786;9.250;2022-10-16T11:00:12;23.60;97.70
16267;DHT22;8241;48.786;9.250;2022-10-16T11:02:46;24.10;96.50
16267;DHT22;8241;48.786;9.250;2022-10-16T11:05:18;24.70;95.70
16267;DHT22;8241;48.786;9.250;2022-10-16T11:07:48;25.30;95.20
16267;DHT22;8241;48.786;9.250;2022-10-16T11:10:16;26.00;92.80
16267;DHT22;8241;48.786;9.250;2022-10-16T11:12:47;26.10;92.80
16267;DHT22;8241;48.786;9.250;2022-10-16T11:15:16;26.60;92.00
16267;DHT22;8241;48.786;9.250;2022-10-16T11:17:47;26.60;92.20
16267;DHT22;8241;48.786;9.250;2022-10-16T11:20:16;26.30;92.50
16267;DHT22;8241;48.786;9.250;2022-10-16T11:22:45;26.00;92.00
16267;DHT22;8241;48.786;9.250;2022-10-16T11:25:14;25.60;93.20
16267;DHT22;8241;48.786;9.250;2022-10-16T11:27:44;25.10;93.00
16267;DHT22;8241;48.786;9.250;2022-10-16T11:30:16;25.40;93.10
16267;DHT22;8241;48.786;9.250;2022-10-16T11:32:54;25.30;93.40
16267;DHT22;8241;48.786;9.250;2022-10-16T11:35:27;25.30;93.50
16267;DHT22;8241;48.786;9.250;2022-10-16T11:37:57;25.50;92.60
16267;DHT22;8241;48.786;9.250;2022-10-16T11:40:37;25.70;92.00
16267;DHT22;8241;48.786;9.250;2022-10-16T11:43:08;25.70;92.00
16267;DHT22;8241;48.786;9.250;2022-10-16T11:45:39;25.80;92.80
16267;DHT22;8241;48.786;9.250;2022-10-16T11:48:26;25.70;91.90
16267;DHT22;8241;48.786;9.250;2022-10-16T11:50:54;25.90;91.70
16267;DHT22;8241;48.786;9.250;2022-10-16T11:55:55;26.10;92.20
16267;DHT22;8241;48.786;9.250;2022-10-16T11:58:23;26.30;91.30
16267;DHT22;8241;48.786;9.250;2022-10-16T12:00:55;26.50;90.80
16267;DHT22;8241;48.786;9.250;2022-10-16T12:03:25;26.30;91.80
16267;DHT22;8241;48.786;9.250;2022-10-16T12:06:06;26.00;91.90
16267;DHT22;8241;48.786;9.250;2022-10-16T12:08:38;25.60;92.00
16267;DHT22;8241;48.786;9.250;2022-10-16T12:14:05;25.60;92.30
16267;DHT22;8241;48.786;9.250;2022-10-16T12:16:36;25.50;92.10
16267;DHT22;8241;48.786;9.250;2022-10-16T12:19:10;25.50;92.00
16267;DHT22;8241;48.786;9.250;2022-10-16T12:24:50;25.60;91.50
16267;DHT22;8241;48.786;9.250;2022-10-16T12:27:21;25.70;91.60
16267;DHT22;8241;48.786;9.250;2022-10-16T12:32:38;25.30;92.40
16267;DHT22;8241;48.786;9.250;2022-10-16T12:35:16;25.20;92.80
16267;DHT22;8241;48.786;9.250;2022-10-16T12:37:43;25.20;93.20
16267;DHT22;8241;48.786;9.250;2022-10-16T12:40:15;25.10;92.80
16267;DHT22;8241;48.786;9.250;2022-10-16T12:42:43;25.00;93.10
16267;DHT22;8241;48.786;9.250;2022-10-16T12:45:28;25.00;92.80
16267;DHT22;8241;48.786;9.250;2022-10-16T12:48:01;25.00;92.70
16267;DHT22;8241;48.786;9.250;2022-10-16T12:50:33;25.20;92.50
16267;DHT22;8241;48.786;9.250;2022-10-16T12:53:00;25.30;93.10
16267;DHT22;8241;48.786;9.250;2022-10-16T12:55:29;25.40;92.60
16267;DHT22;8241;48.786;9.250;2022-10-16T13:07:14;24.60;93.90
16267;DHT22;8241;48.786;9.250;2022-10-16T13:12:45;24.20;94.50
16267;DHT22;8241;48.786;9.250;2022-10-16T13:15:19;24.10;95.00
16267;DHT22;8241;48.786;9.250;2022-10-16T13:17:50;24.10;95.10
16267;DHT22;8241;48.786;9.250;2022-10-16T13:20:21;24.10;94.70
16267;DHT22;8241;48.786;9.250;2022-10-16T13:22:54;24.50;94.30
16267;DHT22;8241;48.786;9.250;2022-10-16T13:25:25;24.60;94.50
16267;DHT22;8241;48.786;9.250;2022-10-16T13:28:02;24.70;94.70
16267;DHT22;8241;48.786;9.250;2022-10-16T13:30:44;24.70;94.30
16267;DHT22;8241;48.786;9.250;2022-10-16T13:35:57;24.50;94.40
16267;DHT22;8241;48.786;9.250;2022-10-16T13:38:41;24.40;94.40
16267;DHT22;8241;48.786;9.250;2022-10-16T13:41:13;24.30;95.30
16267;DHT22;8241;48.786;9.250;2022-10-16T13:43:49;24.30;95.30
16267;DHT22;8241;48.786;9.250;2022-10-16T13:46:18;24.30;94.50
16267;DHT22;8241;48.786;9.250;2022-10-16T13:49:02;24.20;94.90
16267;DHT22;8241;48.786;9.250;2022-10-16T13:51:37;24.20;94.90
16267;DHT22;8241;48.786;9.250;2022-10-16T13:54:15;24.20;94.30
16267;DHT22;8241;48.786;9.250;2022-10-16T13:56:51;24.20;95.10
16267;DHT22;8241;48.786;9.250;2022-10-16T13:59:25;24.20;94.00
16267;DHT22;8241;48.786;9.250;2022-10-16T14:01:53;24.10;94.80
16267;DHT22;8241;48.786;9.250;2022-10-16T14:04:21;24.10;94.80
16267;DHT22;8241;48.786;9.250;2022-10-16T14:12:14;23.80;95.50
16267;DHT22;8241;48.786;9.250;2022-10-16T14:17:38;23.50;96.30
16267;DHT22;8241;48.786;9.250;2022-10-16T14:20:14;23.30;96.60
16267;DHT22;8241;48.786;9.250;2022-10-16T14:25:40;23.00;97.90
16267;DHT22;8241;48.786;9.250;2022-10-16T14:28:25;23.00;98.10
16267;DHT22;8241;48.786;9.250;2022-10-16T14:30:57;23.00;97.50
16267;DHT22;8241;48.786;9.250;2022-10-16T14:36:31;22.90;98.70
16267;DHT22;8241;48.786;9.250;2022-10-16T14:39:02;22.90;98.90
16267;DHT22;8241;48.786;9.250;2022-10-16T14:41:40;23.00;98.40
16267;DHT22;8241;48.786;9.250;2022-10-16T14:47:39;22.90;98.50
16267;DHT22;8241;48.786;9.250;2022-10-16T14:50:13;22.70;99.20
16267;DHT22;8241;48.786;9.250;2022-10-16T14:52:54;22.70;99.70
16267;DHT22;8241;48.786;9.250;2022-10-16T14:55:27;22.70;99.90
16267;DHT22;8241;48.786;9.250;2022-10-16T14:58:05;22.70;99.90
16267;DHT22;8241;48.786;9.250;2022-10-16T15:00:39;22.70;99.90
16267;DHT22;8241;48.786;9.250;2022-10-16T15:05:53;22.70;99.90
16267;DHT22;8241;48.786;9.250;2022-10-16T15:08:24;22.70;99.90
16267;DHT22;8241;48.786;9.250;2022-10-16T15:10:55;22.70;99.90
16267;DHT22;8241;48.786;9.250;2022-10-16T15:16:55;22.70;99.70
16267;DHT22;8241;48.786;9.250;2022-10-16T15:19:21;22.70;99.90
16267;DHT22;8241;48.786;9.250;2022-10-16T15:21:49;22.70;99.90
16267;DHT22;8241;48.786;9.250;2022-10-16T15:24:17;22.70;99.90
16267;DHT22;8241;48.786;9.250;2022-10-16T15:26:44;22.60;99.90
16267;DHT22;8241;48.786;9.250;2022-10-16T15:29:12;22.60;99.90
16267;DHT22;8241;48.786;9.250;2022-10-16T15:31:39;22.60;99.90
16267;DHT22;8241;48.786;9.250;2022-10-16T15:34:09;22.50;99.90
16267;DHT22;8241;48.786;9.250;2022-10-16T15:36:42;22.50;99.90
16267;DHT22;8241;48.786;9.250;2022-10-16T15:39:30;22.50;99.20
16267;DHT22;8241;48.786;9.250;2022-10-16T15:44:56;22.50;99.90
16267;DHT22;8241;48.786;9.250;2022-10-16T15:47:24;22.30;99.90
16267;DHT22;8241;48.786;9.250;2022-10-16T15:52:39;21.90;99.90
16267;DHT22;8241;48.786;9.250;2022-10-16T15:55:09;21.80;99.90
16267;DHT22;8241;48.786;9.250;2022-10-16T15:57:38;21.80;99.90
16267;DHT22;8241;48.786;9.250;2022-10-16T16:00:07;21.90;99.90
16267;DHT22;8241;48.786;9.250;2022-10-16T16:02:49;21.90;99.90
16267;DHT22;8241;48.786;9.250;2022-10-16T16:05:18;21.90;99.90
16267;DHT22;8241;48.786;9.250;2022-10-16T16:07:46;21.90;99.90
16267;DHT22;8241;48.786;9.250;2022-10-16T16:10:14;21.70;99.90
16267;DHT22;8241;48.786;9.250;2022-10-16T16:12:41;21.60;99.90
16267;DHT22;8241;48.786;9.250;2022-10-16T16:15:20;21.40;99.90
16267;DHT22;8241;48.786;9.250;2022-10-16T16:17:47;21.30;99.90
16267;DHT22;8241;48.786;9.250;2022-10-16T16:20:22;21.20;99.90
16267;DHT22;8241;48.786;9.250;2022-10-16T16:22:53;21.10;99.90
16267;DHT22;8241;48.786;9.250;2022-10-16T16:25:21;21.00;99.90
16267;DHT22;8241;48.786;9.250;2022-10-16T16:27:55;20.90;99.90
16267;DHT22;8241;48.786;9.250;2022-10-16T16:30:22;20.80;99.90
16267;DHT22;8241;48.786;9.250;2022-10-16T16:32:56;20.60;99.90
16267;DHT22;8241;48.786;9.250;2022-10-16T16:35:36;20.50;99.90
16267;DHT22;8241;48.786;9.250;2022-10-16T16:38:10;20.60;99.90
16267;DHT22;8241;48.786;9.250;2022-10-16T16:40:49;20.50;99.90
16267;DHT22;8241;48.786;9.250;2022-10-16T16:43:26;20.60;99.90
16267;DHT22;8241;48.786;9.250;2022-10-16T16:46:07;20.60;99.90
16267;DHT22;8241;48.786;9.250;2022-10-16T16:48:47;20.60;99.90
16267;DHT22;8241;48.786;9.250;2022-10-16T16:51:16;20.50;99.90
16267;DHT22;8241;48.786;9.250;2022-10-16T16:59:49;20.30;99.90
16267;DHT22;8241;48.786;9.250;2022-10-16T17:02:33;20.20;99.90
16267;DHT22;8241;48.786;9.250;2022-10-16T17:05:07;20.10;99.90
16267;DHT22;8241;48.786;9.250;2022-10-16T17:07:52;20.00;99.90
16267;DHT22;8241;48.786;9.250;2022-10-16T17:10:41;20.00;99.90
16267;DHT22;8241;48.786;9.250;2022-10-16T17:13:15;20.00;99.90
16267;DHT22;8241;48.786;9.250;2022-10-16T17:15:50;19.90;99.90
16267;DHT22;8241;48.786;9.250;2022-10-16T17:23:50;19.60;99.90
16267;DHT22;8241;48.786;9.250;2022-10-16T17:26:17;19.60;99.90
16267;DHT22;8241;48.786;9.250;2022-10-16T17:28:45;19.50;99.90
16267;DHT22;8241;48.786;9.250;2022-10-16T17:31:15;19.50;99.90
16267;DHT22;8241;48.786;9.250;2022-10-16T17:33:45;19.40;99.90
16267;DHT22;8241;48.786;9.250;2022-10-16T17:36:23;19.40;99.90
16267;DHT22;8241;48.786;9.250;2022-10-16T17:50:48;19.10;99.90
16267;DHT22;8241;48.786;9.250;2022-10-16T17:53:16;19.10;99.90
16267;DHT22;8241;48.786;9.250;2022-10-16T17:55:49;19.00;99.90
16267;DHT22;8241;48.786;9.250;2022-10-16T17:58:26;19.00;99.90
16267;DHT22;8241;48.786;9.250;2022-10-16T18:01:11;18.90;99.90
16267;DHT22;8241;48.786;9.250;2022-10-16T18:03:38;18.90;99.90
16267;DHT22;8241;48.786;9.250;2022-10-16T18:06:15;18.90;99.90
16267;DHT22;8241;48.786;9.250;2022-10-16T18:08:42;18.80;99.90
16267;DHT22;8241;48.786;9.250;2022-10-16T18:11:15;18.70;99.90
16267;DHT22;8241;48.786;9.250;2022-10-16T18:13:51;18.60;99.90
16267;DHT22;8241;48.786;9.250;2022-10-16T18:16:30;18.60;99.90
16267;DHT22;8241;48.786;9.250;2022-10-16T18:19:01;18.50;99.90
16267;DHT22;8241;48.786;9.250;2022-10-16T18:21:37;18.50;99.90
16267;DHT22;8241;48.786;9.250;2022-10-16T18:24:04;18.50;99.90
16267;DHT22;8241;48.786;9.250;2022-10-16T18:26:38;18.50;99.90
16267;DHT22;8241;48.786;9.250;2022-10-16T18:31:53;18.50;99.90
16267;DHT22;8241;48.786;9.250;2022-10-16T18:34:24;18.40;99.90
16267;DHT22;8241;48.786;9.250;2022-10-16T18:36:53;18.40;99.90
16267;DHT22;8241;48.786;9.250;2022-10-16T18:39:31;18.30;99.90
16267;DHT22;8241;48.786;9.250;2022-10-16T18:44:56;18.30;99.90
16267;DHT22;8241;48.786;9.250;2022-10-16T18:47:23;18.30;99.90
16267;DHT22;8241;48.786;9.250;2022-10-16T18:50:02;18.20;99.90
16267;DHT22;8241;48.786;9.250;2022-10-16T18:52:35;18.20;99.90
16267;DHT22;8241;48.786;9.250;2022-10-16T18:55:13;18.20;99.90
16267;DHT22;8241;48.786;9.250;2022-10-16T18:57:54;18.10;99.90
16267;DHT22;8241;48.786;9.250;2022-10-16T19:00:28;18.10;99.90
16267;DHT22;8241;48.786;9.250;2022-10-16T19:02:54;18.10;99.90
16267;DHT22;8241;48.786;9.250;2022-10-16T19:05:22;18.00;99.90
16267;DHT22;8241;48.786;9.250;2022-10-16T19:08:03;18.00;99.90